sensor_id;sensor_type;location;lat;lon;timestamp;P1;durP1;ratioP1;P2;durP2;ratioP2
84725;SDS011;74945;43.124;0.104;2023-12-22T00:01:54;2.40;;;1.40;;
84725;SDS011;74945;43.124;0.104;2023-12-22T00:04:19;3.55;;;1.80;;
84725;SDS011;74945;43.124;0.104;2023-12-22T00:06:45;6.05;;;1.70;;
84725;SDS011;74945;43.124;0.104;2023-12-22T00:09:13;4.95;;;1.80;;
84725;SDS011;74945;43.124;0.104;2023-12-22T00:11:38;4.72;;;1.80;;
84725;SDS011;74945;43.124;0.104;2023-12-22T00:14:03;3.70;;;1.63;;
84725;SDS011;74945;43.124;0.104;2023-12-22T00:16:29;3.78;;;1.77;;
84725;SDS011;74945;43.124;0.104;2023-12-22T00:18:54;2.92;;;1.58;;
84725;SDS011;74945;43.124;0.104;2023-12-22T00:21:21;2.60;;;1.60;;
84725;SDS011;74945;43.124;0.104;2023-12-22T00:23:46;2.50;;;1.67;;
84725;SDS011;74945;43.124;0.104;2023-12-22T00:26:11;3.97;;;1.77;;
84725;SDS011;74945;43.124;0.104;2023-12-22T00:28:37;3.22;;;1.60;;
84725;SDS011;74945;43.124;0.104;2023-12-22T00:31:02;5.03;;;1.50;;
84725;SDS011;74945;43.124;0.104;2023-12-22T00:33:28;4.05;;;1.70;;
84725;SDS011;74945;43.124;0.104;2023-12-22T00:35:53;2.92;;;1.60;;
84725;SDS011;74945;43.124;0.104;2023-12-22T00:38:18;4.43;;;1.50;;
84725;SDS011;74945;43.124;0.104;2023-12-22T00:40:44;3.15;;;1.30;;
84725;SDS011;74945;43.124;0.104;2023-12-22T00:43:09;3.33;;;1.60;;
84725;SDS011;74945;43.124;0.104;2023-12-22T00:45:35;3.70;;;1.80;;
84725;SDS011;74945;43.124;0.104;2023-12-22T00:48:00;4.90;;;1.40;;
84725;SDS011;74945;43.124;0.104;2023-12-22T00:50:25;2.78;;;1.60;;
84725;SDS011;74945;43.124;0.104;2023-12-22T00:52:51;3.70;;;1.52;;
84725;SDS011;74945;43.124;0.104;2023-12-22T00:55:16;3.65;;;1.80;;
84725;SDS011;74945;43.124;0.104;2023-12-22T00:57:42;3.17;;;1.55;;
84725;SDS011;74945;43.124;0.104;2023-12-22T01:00:08;3.85;;;1.50;;
84725;SDS011;74945;43.124;0.104;2023-12-22T01:02:37;2.83;;;1.60;;
84725;SDS011;74945;43.124;0.104;2023-12-22T01:05:03;3.42;;;1.60;;
84725;SDS011;74945;43.124;0.104;2023-12-22T01:07:29;4.05;;;1.67;;
84725;SDS011;74945;43.124;0.104;2023-12-22T01:09:54;2.45;;;1.50;;
84725;SDS011;74945;43.124;0.104;2023-12-22T01:12:19;5.32;;;1.50;;
84725;SDS011;74945;43.124;0.104;2023-12-22T01:14:45;4.45;;;1.45;;
84725;SDS011;74945;43.124;0.104;2023-12-22T01:17:10;3.60;;;1.42;;
84725;SDS011;74945;43.124;0.104;2023-12-22T01:19:36;3.83;;;1.52;;
84725;SDS011;74945;43.124;0.104;2023-12-22T01:22:01;4.70;;;1.60;;
84725;SDS011;74945;43.124;0.104;2023-12-22T01:24:27;3.65;;;1.70;;
84725;SDS011;74945;43.124;0.104;2023-12-22T01:26:53;2.95;;;1.60;;
84725;SDS011;74945;43.124;0.104;2023-12-22T01:29:18;3.67;;;1.50;;
84725;SDS011;74945;43.124;0.104;2023-12-22T01:31:44;2.80;;;1.40;;
84725;SDS011;74945;43.124;0.104;2023-12-22T01:34:09;2.35;;;1.58;;
84725;SDS011;74945;43.124;0.104;2023-12-22T01:36:35;3.72;;;1.50;;
84725;SDS011;74945;43.124;0.104;2023-12-22T01:39:00;1.85;;;1.20;;
84725;SDS011;74945;43.124;0.104;2023-12-22T01:41:25;3.72;;;1.48;;
84725;SDS011;74945;43.124;0.104;2023-12-22T01:43:51;3.10;;;1.25;;
84725;SDS011;74945;43.124;0.104;2023-12-22T01:46:16;3.47;;;1.40;;
84725;SDS011;74945;43.124;0.104;2023-12-22T01:48:42;2.90;;;1.40;;
84725;SDS011;74945;43.124;0.104;2023-12-22T01:51:07;3.33;;;1.40;;
84725;SDS011;74945;43.124;0.104;2023-12-22T01:53:33;4.10;;;1.20;;
84725;SDS011;74945;43.124;0.104;2023-12-22T01:55:59;4.22;;;1.20;;
84725;SDS011;74945;43.124;0.104;2023-12-22T01:58:25;3.22;;;1.50;;
84725;SDS011;74945;43.124;0.104;2023-12-22T02:00:52;2.78;;;1.20;;
84725;SDS011;74945;43.124;0.104;2023-12-22T02:03:18;3.55;;;1.40;;
84725;SDS011;74945;43.124;0.104;2023-12-22T02:05:43;5.10;;;1.45;;
84725;SDS011;74945;43.124;0.104;2023-12-22T02:08:10;2.47;;;1.20;;
84725;SDS011;74945;43.124;0.104;2023-12-22T02:10:36;3.20;;;1.65;;
84725;SDS011;74945;43.124;0.104;2023-12-22T02:13:01;2.53;;;1.50;;
84725;SDS011;74945;43.124;0.104;2023-12-22T02:15:27;3.58;;;1.23;;
84725;SDS011;74945;43.124;0.104;2023-12-22T02:18:05;3.08;;;1.33;;
84725;SDS011;74945;43.124;0.104;2023-12-22T02:20:34;5.90;;;1.45;;
84725;SDS011;74945;43.124;0.104;2023-12-22T02:23:00;4.00;;;1.45;;
84725;SDS011;74945;43.124;0.104;2023-12-22T02:25:25;2.45;;;1.38;;
84725;SDS011;74945;43.124;0.104;2023-12-22T02:27:56;2.63;;;1.15;;
84725;SDS011;74945;43.124;0.104;2023-12-22T02:32:50;2.85;;;1.30;;
84725;SDS011;74945;43.124;0.104;2023-12-22T02:35:17;2.90;;;1.20;;
84725;SDS011;74945;43.124;0.104;2023-12-22T02:37:47;1.95;;;1.17;;
84725;SDS011;74945;43.124;0.104;2023-12-22T02:40:14;3.92;;;1.38;;
84725;SDS011;74945;43.124;0.104;2023-12-22T02:42:40;2.95;;;1.08;;
84725;SDS011;74945;43.124;0.104;2023-12-22T02:45:05;3.88;;;1.40;;
84725;SDS011;74945;43.124;0.104;2023-12-22T02:47:31;3.17;;;1.20;;
84725;SDS011;74945;43.124;0.104;2023-12-22T02:49:59;3.40;;;1.20;;
84725;SDS011;74945;43.124;0.104;2023-12-22T02:52:25;2.63;;;1.13;;
84725;SDS011;74945;43.124;0.104;2023-12-22T02:54:50;1.88;;;1.10;;
84725;SDS011;74945;43.124;0.104;2023-12-22T02:57:15;2.90;;;1.10;;
84725;SDS011;74945;43.124;0.104;2023-12-22T02:59:41;1.50;;;1.00;;
84725;SDS011;74945;43.124;0.104;2023-12-22T03:02:06;5.00;;;1.10;;
84725;SDS011;74945;43.124;0.104;2023-12-22T03:04:32;2.63;;;1.08;;
84725;SDS011;74945;43.124;0.104;2023-12-22T03:06:57;2.03;;;1.20;;
84725;SDS011;74945;43.124;0.104;2023-12-22T03:09:22;1.38;;;1.00;;
84725;SDS011;74945;43.124;0.104;2023-12-22T03:11:48;5.25;;;1.20;;
84725;SDS011;74945;43.124;0.104;2023-12-22T03:14:14;2.55;;;1.30;;
84725;SDS011;74945;43.124;0.104;2023-12-22T03:16:39;3.08;;;1.10;;
84725;SDS011;74945;43.124;0.104;2023-12-22T03:19:06;3.65;;;1.10;;
84725;SDS011;74945;43.124;0.104;2023-12-22T03:21:32;2.35;;;1.30;;
84725;SDS011;74945;43.124;0.104;2023-12-22T03:23:57;2.53;;;1.40;;
84725;SDS011;74945;43.124;0.104;2023-12-22T03:26:22;2.83;;;1.40;;
84725;SDS011;74945;43.124;0.104;2023-12-22T03:28:48;2.85;;;0.88;;
84725;SDS011;74945;43.124;0.104;2023-12-22T03:31:13;2.53;;;1.17;;
84725;SDS011;74945;43.124;0.104;2023-12-22T03:33:38;3.47;;;1.10;;
84725;SDS011;74945;43.124;0.104;2023-12-22T03:36:04;1.77;;;0.90;;
84725;SDS011;74945;43.124;0.104;2023-12-22T03:38:29;2.67;;;1.00;;
84725;SDS011;74945;43.124;0.104;2023-12-22T03:40:55;4.40;;;1.60;;
84725;SDS011;74945;43.124;0.104;2023-12-22T03:43:20;2.35;;;1.02;;
84725;SDS011;74945;43.124;0.104;2023-12-22T03:45:45;2.38;;;1.23;;
84725;SDS011;74945;43.124;0.104;2023-12-22T03:48:11;3.08;;;1.00;;
84725;SDS011;74945;43.124;0.104;2023-12-22T03:50:36;4.05;;;1.45;;
84725;SDS011;74945;43.124;0.104;2023-12-22T03:53:02;2.58;;;1.10;;
84725;SDS011;74945;43.124;0.104;2023-12-22T03:55:27;3.13;;;1.10;;
84725;SDS011;74945;43.124;0.104;2023-12-22T03:57:53;1.17;;;0.98;;
84725;SDS011;74945;43.124;0.104;2023-12-22T04:00:18;2.33;;;1.00;;
84725;SDS011;74945;43.124;0.104;2023-12-22T04:02:44;1.98;;;0.90;;
84725;SDS011;74945;43.124;0.104;2023-12-22T04:05:13;2.38;;;1.00;;
84725;SDS011;74945;43.124;0.104;2023-12-22T04:07:38;3.92;;;0.98;;
84725;SDS011;74945;43.124;0.104;2023-12-22T04:10:03;2.13;;;1.08;;
84725;SDS011;74945;43.124;0.104;2023-12-22T04:12:29;1.73;;;0.98;;
84725;SDS011;74945;43.124;0.104;2023-12-22T04:14:54;2.35;;;1.08;;
84725;SDS011;74945;43.124;0.104;2023-12-22T04:17:20;1.70;;;0.98;;
84725;SDS011;74945;43.124;0.104;2023-12-22T04:19:45;2.72;;;1.08;;
84725;SDS011;74945;43.124;0.104;2023-12-22T04:22:11;1.70;;;1.20;;
84725;SDS011;74945;43.124;0.104;2023-12-22T04:24:36;1.27;;;0.95;;
84725;SDS011;74945;43.124;0.104;2023-12-22T04:27:01;1.73;;;0.80;;
84725;SDS011;74945;43.124;0.104;2023-12-22T04:29:27;2.50;;;1.20;;
84725;SDS011;74945;43.124;0.104;2023-12-22T04:31:52;2.78;;;0.90;;
84725;SDS011;74945;43.124;0.104;2023-12-22T04:34:17;2.35;;;0.90;;
84725;SDS011;74945;43.124;0.104;2023-12-22T04:36:43;2.30;;;1.45;;
84725;SDS011;74945;43.124;0.104;2023-12-22T04:39:08;2.10;;;0.80;;
84725;SDS011;74945;43.124;0.104;2023-12-22T04:41:33;2.33;;;0.90;;
84725;SDS011;74945;43.124;0.104;2023-12-22T04:43:59;1.98;;;0.82;;
84725;SDS011;74945;43.124;0.104;2023-12-22T04:46:28;4.50;;;1.08;;
84725;SDS011;74945;43.124;0.104;2023-12-22T04:48:56;2.25;;;0.90;;
84725;SDS011;74945;43.124;0.104;2023-12-22T04:51:21;2.15;;;1.17;;
84725;SDS011;74945;43.124;0.104;2023-12-22T04:53:47;1.60;;;0.90;;
84725;SDS011;74945;43.124;0.104;2023-12-22T04:56:12;1.95;;;1.10;;
84725;SDS011;74945;43.124;0.104;2023-12-22T04:58:38;1.33;;;0.80;;
84725;SDS011;74945;43.124;0.104;2023-12-22T05:01:03;1.85;;;0.93;;
84725;SDS011;74945;43.124;0.104;2023-12-22T05:03:28;1.83;;;0.90;;
84725;SDS011;74945;43.124;0.104;2023-12-22T05:05:54;1.42;;;0.90;;
84725;SDS011;74945;43.124;0.104;2023-12-22T05:08:19;1.88;;;0.85;;
84725;SDS011;74945;43.124;0.104;2023-12-22T05:10:44;1.35;;;0.90;;
84725;SDS011;74945;43.124;0.104;2023-12-22T05:13:10;2.47;;;0.90;;
84725;SDS011;74945;43.124;0.104;2023-12-22T05:15:35;1.00;;;0.85;;
84725;SDS011;74945;43.124;0.104;2023-12-22T05:18:01;1.15;;;0.80;;
84725;SDS011;74945;43.124;0.104;2023-12-22T05:20:26;2.38;;;0.80;;
84725;SDS011;74945;43.124;0.104;2023-12-22T05:22:51;1.45;;;0.80;;
84725;SDS011;74945;43.124;0.104;2023-12-22T05:25:17;2.13;;;0.90;;
84725;SDS011;74945;43.124;0.104;2023-12-22T05:27:42;2.22;;;0.90;;
84725;SDS011;74945;43.124;0.104;2023-12-22T05:30:08;2.22;;;0.90;;
84725;SDS011;74945;43.124;0.104;2023-12-22T05:32:34;0.93;;;0.80;;
84725;SDS011;74945;43.124;0.104;2023-12-22T05:34:59;1.85;;;0.90;;
84725;SDS011;74945;43.124;0.104;2023-12-22T05:37:24;1.58;;;0.85;;
84725;SDS011;74945;43.124;0.104;2023-12-22T05:39:50;1.95;;;1.02;;
84725;SDS011;74945;43.124;0.104;2023-12-22T05:42:15;1.65;;;0.80;;
84725;SDS011;74945;43.124;0.104;2023-12-22T05:44:41;1.35;;;0.70;;
84725;SDS011;74945;43.124;0.104;2023-12-22T05:47:06;2.33;;;0.80;;
84725;SDS011;74945;43.124;0.104;2023-12-22T05:49:33;1.65;;;0.90;;
84725;SDS011;74945;43.124;0.104;2023-12-22T05:51:58;1.45;;;0.80;;
84725;SDS011;74945;43.124;0.104;2023-12-22T05:54:24;2.80;;;0.90;;
84725;SDS011;74945;43.124;0.104;2023-12-22T05:56:50;2.95;;;0.90;;
84725;SDS011;74945;43.124;0.104;2023-12-22T05:59:16;2.83;;;0.98;;
84725;SDS011;74945;43.124;0.104;2023-12-22T06:01:42;1.58;;;0.75;;
84725;SDS011;74945;43.124;0.104;2023-12-22T06:04:08;0.88;;;0.65;;
84725;SDS011;74945;43.124;0.104;2023-12-22T06:06:33;0.80;;;0.70;;
84725;SDS011;74945;43.124;0.104;2023-12-22T06:08:58;1.88;;;0.90;;
84725;SDS011;74945;43.124;0.104;2023-12-22T06:11:24;1.38;;;1.00;;
84725;SDS011;74945;43.124;0.104;2023-12-22T06:13:49;2.70;;;0.90;;
84725;SDS011;74945;43.124;0.104;2023-12-22T06:16:15;0.90;;;0.70;;
84725;SDS011;74945;43.124;0.104;2023-12-22T06:18:40;0.65;;;0.60;;
84725;SDS011;74945;43.124;0.104;2023-12-22T06:21:06;1.80;;;0.80;;
84725;SDS011;74945;43.124;0.104;2023-12-22T06:23:33;2.00;;;1.20;;
84725;SDS011;74945;43.124;0.104;2023-12-22T06:25:58;1.75;;;0.90;;
84725;SDS011;74945;43.124;0.104;2023-12-22T06:28:24;1.83;;;0.80;;
84725;SDS011;74945;43.124;0.104;2023-12-22T06:30:49;1.67;;;0.80;;
84725;SDS011;74945;43.124;0.104;2023-12-22T06:33:14;1.75;;;0.88;;
84725;SDS011;74945;43.124;0.104;2023-12-22T06:35:40;1.52;;;0.80;;
84725;SDS011;74945;43.124;0.104;2023-12-22T06:38:09;1.40;;;1.00;;
84725;SDS011;74945;43.124;0.104;2023-12-22T06:40:36;2.20;;;0.70;;
84725;SDS011;74945;43.124;0.104;2023-12-22T06:43:02;1.30;;;0.88;;
84725;SDS011;74945;43.124;0.104;2023-12-22T06:45:28;0.88;;;0.75;;
84725;SDS011;74945;43.124;0.104;2023-12-22T06:47:53;0.90;;;0.60;;
84725;SDS011;74945;43.124;0.104;2023-12-22T06:50:19;0.60;;;0.60;;
84725;SDS011;74945;43.124;0.104;2023-12-22T06:52:44;3.97;;;0.88;;
84725;SDS011;74945;43.124;0.104;2023-12-22T06:55:09;1.95;;;0.60;;
84725;SDS011;74945;43.124;0.104;2023-12-22T06:57:35;2.22;;;0.60;;
84725;SDS011;74945;43.124;0.104;2023-12-22T07:00:00;0.98;;;0.60;;
84725;SDS011;74945;43.124;0.104;2023-12-22T07:02:26;0.95;;;0.52;;
84725;SDS011;74945;43.124;0.104;2023-12-22T07:07:48;2.00;;;0.80;;
84725;SDS011;74945;43.124;0.104;2023-12-22T07:10:13;0.63;;;0.57;;
84725;SDS011;74945;43.124;0.104;2023-12-22T07:12:39;1.70;;;0.47;;
84725;SDS011;74945;43.124;0.104;2023-12-22T07:15:05;2.72;;;0.70;;
84725;SDS011;74945;43.124;0.104;2023-12-22T07:17:32;5.78;;;1.05;;
84725;SDS011;74945;43.124;0.104;2023-12-22T07:19:57;3.38;;;0.60;;
84725;SDS011;74945;43.124;0.104;2023-12-22T07:22:23;4.30;;;0.73;;
84725;SDS011;74945;43.124;0.104;2023-12-22T07:24:48;2.40;;;0.60;;
84725;SDS011;74945;43.124;0.104;2023-12-22T07:27:14;2.13;;;0.68;;
84725;SDS011;74945;43.124;0.104;2023-12-22T07:29:40;2.00;;;0.68;;
84725;SDS011;74945;43.124;0.104;2023-12-22T07:32:05;2.03;;;0.55;;
84725;SDS011;74945;43.124;0.104;2023-12-22T07:34:31;3.00;;;0.68;;
84725;SDS011;74945;43.124;0.104;2023-12-22T07:36:56;3.50;;;0.73;;
84725;SDS011;74945;43.124;0.104;2023-12-22T07:39:22;8.48;;;1.20;;
84725;SDS011;74945;43.124;0.104;2023-12-22T07:41:47;14.95;;;1.20;;
84725;SDS011;74945;43.124;0.104;2023-12-22T07:44:13;1.80;;;0.65;;
84725;SDS011;74945;43.124;0.104;2023-12-22T07:46:39;4.10;;;0.90;;
84725;SDS011;74945;43.124;0.104;2023-12-22T07:49:04;5.22;;;0.98;;
84725;SDS011;74945;43.124;0.104;2023-12-22T07:51:29;3.33;;;0.80;;
84725;SDS011;74945;43.124;0.104;2023-12-22T07:53:55;3.63;;;0.60;;
84725;SDS011;74945;43.124;0.104;2023-12-22T07:56:20;3.00;;;0.68;;
84725;SDS011;74945;43.124;0.104;2023-12-22T07:58:45;2.47;;;0.60;;
84725;SDS011;74945;43.124;0.104;2023-12-22T08:01:11;1.38;;;0.47;;
84725;SDS011;74945;43.124;0.104;2023-12-22T08:03:37;7.68;;;0.80;;
84725;SDS011;74945;43.124;0.104;2023-12-22T08:06:02;2.53;;;0.55;;
84725;SDS011;74945;43.124;0.104;2023-12-22T08:08:28;2.15;;;0.43;;
84725;SDS011;74945;43.124;0.104;2023-12-22T08:10:54;5.32;;;0.63;;
84725;SDS011;74945;43.124;0.104;2023-12-22T08:13:19;2.40;;;0.60;;
84725;SDS011;74945;43.124;0.104;2023-12-22T08:15:44;1.17;;;0.50;;
84725;SDS011;74945;43.124;0.104;2023-12-22T08:18:10;2.55;;;0.60;;
84725;SDS011;74945;43.124;0.104;2023-12-22T08:20:36;1.48;;;0.50;;
84725;SDS011;74945;43.124;0.104;2023-12-22T08:23:02;5.28;;;0.73;;
84725;SDS011;74945;43.124;0.104;2023-12-22T08:25:27;1.45;;;0.95;;
84725;SDS011;74945;43.124;0.104;2023-12-22T08:27:53;1.58;;;0.60;;
84725;SDS011;74945;43.124;0.104;2023-12-22T08:30:18;5.15;;;0.82;;
84725;SDS011;74945;43.124;0.104;2023-12-22T08:32:44;1.48;;;0.68;;
84725;SDS011;74945;43.124;0.104;2023-12-22T08:35:10;1.02;;;0.65;;
84725;SDS011;74945;43.124;0.104;2023-12-22T08:37:35;2.47;;;0.77;;
84725;SDS011;74945;43.124;0.104;2023-12-22T08:40:00;3.05;;;0.70;;
84725;SDS011;74945;43.124;0.104;2023-12-22T08:42:26;1.13;;;0.50;;
84725;SDS011;74945;43.124;0.104;2023-12-22T08:44:52;1.48;;;0.70;;
84725;SDS011;74945;43.124;0.104;2023-12-22T08:47:17;1.98;;;0.70;;
84725;SDS011;74945;43.124;0.104;2023-12-22T08:49:43;0.95;;;0.57;;
84725;SDS011;74945;43.124;0.104;2023-12-22T08:52:08;1.35;;;0.55;;
84725;SDS011;74945;43.124;0.104;2023-12-22T08:54:33;0.98;;;0.60;;
84725;SDS011;74945;43.124;0.104;2023-12-22T08:57:00;1.15;;;0.40;;
84725;SDS011;74945;43.124;0.104;2023-12-22T08:59:26;1.25;;;0.52;;
84725;SDS011;74945;43.124;0.104;2023-12-22T09:01:51;0.50;;;0.40;;
84725;SDS011;74945;43.124;0.104;2023-12-22T09:04:16;0.95;;;0.45;;
84725;SDS011;74945;43.124;0.104;2023-12-22T09:06:42;2.17;;;0.70;;
84725;SDS011;74945;43.124;0.104;2023-12-22T09:09:07;2.67;;;0.60;;
84725;SDS011;74945;43.124;0.104;2023-12-22T09:11:34;0.73;;;0.50;;
84725;SDS011;74945;43.124;0.104;2023-12-22T09:13:59;0.95;;;0.50;;
84725;SDS011;74945;43.124;0.104;2023-12-22T09:16:25;1.02;;;0.55;;
84725;SDS011;74945;43.124;0.104;2023-12-22T09:18:50;0.85;;;0.68;;
84725;SDS011;74945;43.124;0.104;2023-12-22T09:21:16;2.03;;;0.55;;
84725;SDS011;74945;43.124;0.104;2023-12-22T09:23:43;0.75;;;0.38;;
84725;SDS011;74945;43.124;0.104;2023-12-22T09:26:11;4.15;;;0.60;;
84725;SDS011;74945;43.124;0.104;2023-12-22T09:28:37;1.35;;;0.50;;
84725;SDS011;74945;43.124;0.104;2023-12-22T09:31:02;1.23;;;0.40;;
84725;SDS011;74945;43.124;0.104;2023-12-22T09:33:30;1.98;;;0.70;;
84725;SDS011;74945;43.124;0.104;2023-12-22T09:35:56;2.60;;;0.50;;
84725;SDS011;74945;43.124;0.104;2023-12-22T09:38:21;0.98;;;0.60;;
84725;SDS011;74945;43.124;0.104;2023-12-22T09:40:48;1.33;;;0.50;;
84725;SDS011;74945;43.124;0.104;2023-12-22T09:43:14;2.58;;;0.45;;
84725;SDS011;74945;43.124;0.104;2023-12-22T09:45:40;1.77;;;0.43;;
84725;SDS011;74945;43.124;0.104;2023-12-22T09:48:06;1.05;;;0.50;;
84725;SDS011;74945;43.124;0.104;2023-12-22T09:50:33;1.50;;;0.40;;
84725;SDS011;74945;43.124;0.104;2023-12-22T09:52:59;0.40;;;0.40;;
84725;SDS011;74945;43.124;0.104;2023-12-22T09:55:25;0.80;;;0.40;;
84725;SDS011;74945;43.124;0.104;2023-12-22T09:57:52;0.60;;;0.50;;
84725;SDS011;74945;43.124;0.104;2023-12-22T10:00:17;1.95;;;0.60;;
84725;SDS011;74945;43.124;0.104;2023-12-22T10:02:43;1.42;;;0.50;;
84725;SDS011;74945;43.124;0.104;2023-12-22T10:05:10;1.70;;;0.40;;
84725;SDS011;74945;43.124;0.104;2023-12-22T10:07:38;0.60;;;0.45;;
84725;SDS011;74945;43.124;0.104;2023-12-22T10:10:04;2.22;;;0.50;;
84725;SDS011;74945;43.124;0.104;2023-12-22T10:12:29;0.60;;;0.50;;
84725;SDS011;74945;43.124;0.104;2023-12-22T10:14:58;0.65;;;0.50;;
84725;SDS011;74945;43.124;0.104;2023-12-22T10:17:24;0.50;;;0.50;;
84725;SDS011;74945;43.124;0.104;2023-12-22T10:19:50;1.30;;;0.43;;
84725;SDS011;74945;43.124;0.104;2023-12-22T10:22:16;0.68;;;0.68;;
84725;SDS011;74945;43.124;0.104;2023-12-22T10:24:43;0.73;;;0.50;;
84725;SDS011;74945;43.124;0.104;2023-12-22T10:27:12;1.20;;;0.50;;
84725;SDS011;74945;43.124;0.104;2023-12-22T10:29:38;0.85;;;0.40;;
84725;SDS011;74945;43.124;0.104;2023-12-22T10:32:06;0.77;;;0.40;;
84725;SDS011;74945;43.124;0.104;2023-12-22T10:34:32;0.73;;;0.50;;
84725;SDS011;74945;43.124;0.104;2023-12-22T10:37:00;0.57;;;0.50;;
84725;SDS011;74945;43.124;0.104;2023-12-22T10:39:27;0.60;;;0.50;;
84725;SDS011;74945;43.124;0.104;2023-12-22T10:41:53;0.45;;;0.45;;
84725;SDS011;74945;43.124;0.104;2023-12-22T10:44:19;0.40;;;0.40;;
84725;SDS011;74945;43.124;0.104;2023-12-22T10:46:44;0.45;;;0.45;;
84725;SDS011;74945;43.124;0.104;2023-12-22T10:49:12;0.50;;;0.47;;
84725;SDS011;74945;43.124;0.104;2023-12-22T10:51:37;0.40;;;0.40;;
84725;SDS011;74945;43.124;0.104;2023-12-22T10:54:04;0.77;;;0.50;;
84725;SDS011;74945;43.124;0.104;2023-12-22T10:56:30;0.77;;;0.50;;
84725;SDS011;74945;43.124;0.104;2023-12-22T10:58:56;0.40;;;0.40;;
84725;SDS011;74945;43.124;0.104;2023-12-22T11:01:23;0.73;;;0.40;;
84725;SDS011;74945;43.124;0.104;2023-12-22T11:03:54;1.75;;;0.50;;
84725;SDS011;74945;43.124;0.104;2023-12-22T11:06:23;0.63;;;0.50;;
84725;SDS011;74945;43.124;0.104;2023-12-22T11:08:51;1.65;;;0.52;;
84725;SDS011;74945;43.124;0.104;2023-12-22T11:11:27;1.20;;;0.50;;
84725;SDS011;74945;43.124;0.104;2023-12-22T11:13:56;0.63;;;0.50;;
84725;SDS011;74945;43.124;0.104;2023-12-22T11:16:23;0.63;;;0.38;;
84725;SDS011;74945;43.124;0.104;2023-12-22T11:18:49;0.70;;;0.40;;
84725;SDS011;74945;43.124;0.104;2023-12-22T11:21:15;0.68;;;0.50;;
84725;SDS011;74945;43.124;0.104;2023-12-22T11:23:41;1.95;;;0.50;;
84725;SDS011;74945;43.124;0.104;2023-12-22T11:26:07;0.43;;;0.40;;
84725;SDS011;74945;43.124;0.104;2023-12-22T11:28:36;0.88;;;0.70;;
84725;SDS011;74945;43.124;0.104;2023-12-22T11:31:01;1.27;;;0.40;;
84725;SDS011;74945;43.124;0.104;2023-12-22T11:33:27;0.43;;;0.35;;
84725;SDS011;74945;43.124;0.104;2023-12-22T11:35:55;0.60;;;0.47;;
84725;SDS011;74945;43.124;0.104;2023-12-22T11:38:20;0.88;;;0.40;;
84725;SDS011;74945;43.124;0.104;2023-12-22T11:40:46;0.63;;;0.50;;
84725;SDS011;74945;43.124;0.104;2023-12-22T11:43:14;0.40;;;0.40;;
84725;SDS011;74945;43.124;0.104;2023-12-22T11:45:41;1.13;;;0.40;;
84725;SDS011;74945;43.124;0.104;2023-12-22T11:48:08;0.30;;;0.30;;
84725;SDS011;74945;43.124;0.104;2023-12-22T11:50:34;0.40;;;0.40;;
84725;SDS011;74945;43.124;0.104;2023-12-22T11:58:38;0.45;;;0.45;;
84725;SDS011;74945;43.124;0.104;2023-12-22T12:01:13;0.50;;;0.40;;
84725;SDS011;74945;43.124;0.104;2023-12-22T12:03:47;1.38;;;0.40;;
84725;SDS011;74945;43.124;0.104;2023-12-22T12:06:22;0.60;;;0.50;;
84725;SDS011;74945;43.124;0.104;2023-12-22T12:08:51;0.40;;;0.40;;
84725;SDS011;74945;43.124;0.104;2023-12-22T12:11:18;0.35;;;0.30;;
84725;SDS011;74945;43.124;0.104;2023-12-22T12:13:44;0.40;;;0.40;;
84725;SDS011;74945;43.124;0.104;2023-12-22T12:16:11;0.30;;;0.30;;
84725;SDS011;74945;43.124;0.104;2023-12-22T12:18:38;0.80;;;0.50;;
84725;SDS011;74945;43.124;0.104;2023-12-22T12:21:05;0.65;;;0.65;;
84725;SDS011;74945;43.124;0.104;2023-12-22T12:23:32;0.50;;;0.43;;
84725;SDS011;74945;43.124;0.104;2023-12-22T12:25:57;1.05;;;0.40;;
84725;SDS011;74945;43.124;0.104;2023-12-22T12:28:26;0.30;;;0.30;;
84725;SDS011;74945;43.124;0.104;2023-12-22T12:31:00;0.50;;;0.40;;
84725;SDS011;74945;43.124;0.104;2023-12-22T12:33:32;0.40;;;0.40;;
84725;SDS011;74945;43.124;0.104;2023-12-22T12:35:58;0.50;;;0.43;;
84725;SDS011;74945;43.124;0.104;2023-12-22T12:38:49;0.40;;;0.40;;
84725;SDS011;74945;43.124;0.104;2023-12-22T12:41:38;0.40;;;0.30;;
84725;SDS011;74945;43.124;0.104;2023-12-22T12:44:06;0.30;;;0.30;;
84725;SDS011;74945;43.124;0.104;2023-12-22T12:46:32;0.45;;;0.40;;
84725;SDS011;74945;43.124;0.104;2023-12-22T12:49:02;0.65;;;0.50;;
84725;SDS011;74945;43.124;0.104;2023-12-22T12:51:29;1.73;;;0.40;;
84725;SDS011;74945;43.124;0.104;2023-12-22T12:53:55;13.18;;;1.42;;
84725;SDS011;74945;43.124;0.104;2023-12-22T12:56:21;1.30;;;0.60;;
84725;SDS011;74945;43.124;0.104;2023-12-22T12:58:46;12.18;;;3.20;;
84725;SDS011;74945;43.124;0.104;2023-12-22T13:01:11;124.50;;;57.45;;
84725;SDS011;74945;43.124;0.104;2023-12-22T13:03:58;71.93;;;35.30;;
84725;SDS011;74945;43.124;0.104;2023-12-22T13:06:23;119.13;;;58.05;;
84725;SDS011;74945;43.124;0.104;2023-12-22T13:08:48;102.05;;;50.10;;
84725;SDS011;74945;43.124;0.104;2023-12-22T13:11:15;93.88;;;45.78;;
84725;SDS011;74945;43.124;0.104;2023-12-22T13:13:45;87.72;;;42.30;;
84725;SDS011;74945;43.124;0.104;2023-12-22T13:16:10;76.72;;;40.53;;
84725;SDS011;74945;43.124;0.104;2023-12-22T13:18:36;85.93;;;42.00;;
84725;SDS011;74945;43.124;0.104;2023-12-22T13:21:02;76.55;;;40.47;;
84725;SDS011;74945;43.124;0.104;2023-12-22T13:23:28;68.47;;;36.45;;
84725;SDS011;74945;43.124;0.104;2023-12-22T13:25:53;64.80;;;34.33;;
84725;SDS011;74945;43.124;0.104;2023-12-22T13:28:28;59.45;;;31.98;;
84725;SDS011;74945;43.124;0.104;2023-12-22T13:30:53;56.92;;;30.05;;
84725;SDS011;74945;43.124;0.104;2023-12-22T13:33:19;52.42;;;28.40;;
84725;SDS011;74945;43.124;0.104;2023-12-22T13:35:44;44.25;;;23.63;;
84725;SDS011;74945;43.124;0.104;2023-12-22T13:38:11;44.17;;;23.98;;
84725;SDS011;74945;43.124;0.104;2023-12-22T13:40:37;39.47;;;21.80;;
84725;SDS011;74945;43.124;0.104;2023-12-22T13:43:03;37.63;;;20.92;;
84725;SDS011;74945;43.124;0.104;2023-12-22T13:45:28;34.35;;;19.58;;
84725;SDS011;74945;43.124;0.104;2023-12-22T13:47:56;34.25;;;17.88;;
84725;SDS011;74945;43.124;0.104;2023-12-22T13:50:22;31.00;;;16.42;;
84725;SDS011;74945;43.124;0.104;2023-12-22T13:52:50;30.20;;;15.45;;
84725;SDS011;74945;43.124;0.104;2023-12-22T13:55:16;26.10;;;14.85;;
84725;SDS011;74945;43.124;0.104;2023-12-22T13:57:44;26.88;;;13.70;;
84725;SDS011;74945;43.124;0.104;2023-12-22T14:02:44;20.80;;;12.48;;
84725;SDS011;74945;43.124;0.104;2023-12-22T14:05:14;27.50;;;12.48;;
84725;SDS011;74945;43.124;0.104;2023-12-22T14:07:45;23.98;;;12.50;;
84725;SDS011;74945;43.124;0.104;2023-12-22T14:10:11;22.23;;;11.55;;
84725;SDS011;74945;43.124;0.104;2023-12-22T14:12:37;26.52;;;10.15;;
84725;SDS011;74945;43.124;0.104;2023-12-22T14:15:06;19.98;;;10.50;;
84725;SDS011;74945;43.124;0.104;2023-12-22T14:17:32;22.23;;;10.07;;
84725;SDS011;74945;43.124;0.104;2023-12-22T14:19:58;22.65;;;10.27;;
84725;SDS011;74945;43.124;0.104;2023-12-22T14:22:23;18.52;;;9.50;;
84725;SDS011;74945;43.124;0.104;2023-12-22T14:24:49;25.55;;;9.63;;
84725;SDS011;74945;43.124;0.104;2023-12-22T14:27:14;16.08;;;8.65;;
84725;SDS011;74945;43.124;0.104;2023-12-22T14:29:42;16.48;;;8.63;;
84725;SDS011;74945;43.124;0.104;2023-12-22T14:32:08;15.43;;;8.15;;
84725;SDS011;74945;43.124;0.104;2023-12-22T14:34:33;17.05;;;8.43;;
84725;SDS011;74945;43.124;0.104;2023-12-22T14:36:59;32.03;;;8.30;;
84725;SDS011;74945;43.124;0.104;2023-12-22T14:39:25;15.05;;;7.93;;
84725;SDS011;74945;43.124;0.104;2023-12-22T14:41:51;14.88;;;6.93;;
84725;SDS011;74945;43.124;0.104;2023-12-22T14:44:17;14.40;;;6.93;;
84725;SDS011;74945;43.124;0.104;2023-12-22T14:46:42;14.32;;;7.15;;
84725;SDS011;74945;43.124;0.104;2023-12-22T14:49:08;13.45;;;7.18;;
84725;SDS011;74945;43.124;0.104;2023-12-22T14:51:39;18.15;;;6.88;;
84725;SDS011;74945;43.124;0.104;2023-12-22T14:54:05;13.65;;;7.40;;